Terminal Aerodrome Forecast
Issued by NWS Melbourne, FL

Home | Current Version | Previous Version | Text Only | Print | Product List | Glossary On
Versions: 1 2 3 4 5 6 7 8 9 10 11 12 13 14 15 16 17
252
FTUS42 KMLB 261739 AAA
TAFDAB
TAF AMD
KDAB 261739Z 2618/2718 08008KT P6SM VCTS SCT025CB BKN035
      TEMPO 2618/2620 1SM +TSRA BKN008CB OVC025CB
     FM262000 11010KT P6SM VCTS BKN035CB
      TEMPO 2620/2622 3SM TSRA BKN030CB
     FM262300 VRB03KT P6SM VCSH SCT040 BKN070
     FM270400 18003KT P6SM FEW030 SCT080 BKN250
     FM271400 25005KT P6SM VCSH SCT035 BKN250=

USA.gov is the U.S. government's official web portal to all federal, state and local government web resources and services.